Time;durP1;ratioP1;P1;durP2;ratioP2;P2;SDS_P1;SDS_P2;PMS_P1;PMS_P2;Temp;Humidity;BMP_temperature;BMP_pressure;BME280_temperature;BME280_humidity;BME280_pressure;Samples;Min_cycle;Max_cycle;Signal;HPM_P1;HPM_P2
2022/07/11 00:01:21;;;;;;;3.87;2.87;;;;;;;19.70;86.58;99203.06;5113777;28;20304;-70
2022/07/11 00:03:49;;;;;;;3.63;2.50;;;;;;;19.76;86.23;99201.78;5115361;27;20270;-71
2022/07/11 00:06:16;;;;;;;2.57;2.47;;;;;;;19.77;85.68;99193.84;5115892;27;20203;-70
2022/07/11 00:08:43;;;;;;;2.30;2.10;;;;;;;19.78;85.60;99190.31;5113081;28;20271;-71
2022/07/11 00:11:10;;;;;;;2.53;2.40;;;;;;;19.81;85.29;99184.91;5114590;27;20201;-71
2022/07/11 00:13:36;;;;;;;2.10;2.10;;;;;;;19.81;85.19;99191.88;5115543;27;20205;-71
2022/07/11 00:16:04;;;;;;;2.67;2.47;;;;;;;19.77;84.69;99188.66;5129003;27;20199;-71
2022/07/11 00:18:31;;;;;;;2.23;2.17;;;;;;;19.68;85.43;99189.31;5122046;27;20188;-70
2022/07/11 00:20:59;;;;;;;2.40;2.30;;;;;;;19.48;86.33;99186.47;5113440;28;20613;-71
2022/07/11 00:23:26;;;;;;;1.97;1.87;;;;;;;19.20;86.84;99156.31;5113205;28;20216;-71
2022/07/11 00:25:53;;;;;;;1.93;1.67;;;;;;;19.34;87.13;99182.19;5132679;27;20280;-71
2022/07/11 00:28:20;;;;;;;2.13;2.10;;;;;;;19.25;88.02;99185.44;5129117;27;20206;-71
2022/07/11 00:30:47;;;;;;;2.27;2.17;;;;;;;19.18;88.46;99185.03;5125204;27;20197;-71
2022/07/11 00:33:13;;;;;;;3.10;2.50;;;;;;;19.18;88.25;99179.00;5120691;27;20256;-71
2022/07/11 00:35:43;;;;;;;2.47;2.37;;;;;;;19.17;88.53;99192.91;5119517;27;20205;-66
2022/07/11 00:38:11;;;;;;;2.17;2.17;;;;;;;19.16;89.11;99192.06;5116588;27;20201;-65
2022/07/11 00:40:38;;;;;;;2.30;2.20;;;;;;;19.18;88.94;99189.38;5128758;27;20194;-65
2022/07/11 00:43:05;;;;;;;2.00;1.90;;;;;;;19.19;89.39;99198.84;5125684;27;20246;-66
2022/07/11 00:45:32;;;;;;;2.43;2.33;;;;;;;19.19;89.19;99196.25;5133214;27;20199;-65
2022/07/11 00:47:59;;;;;;;2.17;2.07;;;;;;;19.16;90.56;99206.84;5127894;27;20318;-66
2022/07/11 00:50:27;;;;;;;2.10;2.00;;;;;;;19.15;90.31;99206.03;5125179;27;20695;-65
2022/07/11 00:52:56;;;;;;;2.53;2.33;;;;;;;19.17;91.26;99198.94;5131123;27;20203;-64
2022/07/11 00:55:24;;;;;;;2.30;2.20;;;;;;;19.00;90.73;99191.44;5117979;27;20582;-65
2022/07/11 00:57:53;;;;;;;2.27;2.17;;;;;;;19.14;91.00;99196.56;5111749;27;20194;-65
2022/07/11 01:00:20;;;;;;;2.93;2.83;;;;;;;19.12;90.18;99197.59;5115091;27;20570;-65
2022/07/11 01:02:47;;;;;;;2.13;2.03;;;;;;;19.08;90.28;99202.19;5132590;27;20583;-65
2022/07/11 01:05:13;;;;;;;2.10;2.10;;;;;;;19.13;90.18;99209.63;5119555;27;20656;-65
2022/07/11 01:07:40;;;;;;;2.30;2.20;;;;;;;19.07;90.08;99212.66;5113254;27;20201;-65
2022/07/11 01:10:08;;;;;;;2.50;2.43;;;;;;;19.03;90.72;99211.22;5120801;27;20748;-65
2022/07/11 01:12:36;;;;;;;2.00;2.00;;;;;;;19.01;90.62;99213.91;5125364;27;20209;-65
2022/07/11 01:15:05;;;;;;;2.23;2.13;;;;;;;18.99;90.29;99214.94;5119997;27;20264;-66
2022/07/11 01:17:32;;;;;;;2.43;2.40;;;;;;;19.02;90.54;99219.94;5111913;27;20200;-65
2022/07/11 01:20:00;;;;;;;3.23;2.40;;;;;;;18.91;90.63;99196.44;5109769;28;20200;-65
2022/07/11 01:22:36;;;;;;;2.53;2.43;;;;;;;19.03;90.13;99211.22;5111734;28;20199;-65
2022/07/11 01:25:05;;;;;;;2.50;2.40;;;;;;;19.05;90.39;99214.53;5113234;27;20677;-65
2022/07/11 01:27:33;;;;;;;2.40;2.30;;;;;;;19.03;89.66;99214.63;5124493;27;20203;-66
2022/07/11 01:30:00;;;;;;;3.60;2.30;;;;;;;19.02;90.21;99214.75;5114110;27;20219;-66
2022/07/11 01:32:27;;;;;;;1.80;1.80;;;;;;;19.05;89.86;99214.53;5124818;27;20211;-66
2022/07/11 01:34:54;;;;;;;2.30;2.30;;;;;;;18.92;89.54;99198.09;5132250;27;20689;-66
2022/07/11 01:37:20;;;;;;;2.07;2.03;;;;;;;18.97;89.32;99209.00;5118397;27;20196;-66
2022/07/11 01:39:47;;;;;;;2.63;2.43;;;;;;;18.77;89.52;99185.22;5111863;27;20191;-66
2022/07/11 01:42:16;;;;;;;2.30;2.20;;;;;;;18.89;90.33;99204.34;5113306;27;20652;-66
2022/07/11 01:44:42;;;;;;;2.37;2.27;;;;;;;18.82;90.20;99196.13;5111735;28;20218;-66
2022/07/11 01:47:09;;;;;;;2.03;2.03;;;;;;;18.73;90.46;99198.53;5120513;27;20225;-65
2022/07/11 01:49:36;;;;;;;2.57;2.47;;;;;;;18.68;91.20;99201.41;5117598;27;20434;-66
2022/07/11 01:52:03;;;;;;;2.50;2.40;;;;;;;18.67;91.00;99204.97;5113232;27;20199;-65
2022/07/11 01:54:30;;;;;;;2.60;2.50;;;;;;;18.66;91.64;99207.66;5111610;27;20203;-66
2022/07/11 01:56:57;;;;;;;3.17;2.87;;;;;;;18.60;91.24;99197.66;5111225;28;20203;-66
2022/07/11 01:59:25;;;;;;;2.50;2.40;;;;;;;18.58;92.40;99205.53;5111465;28;21445;-65
2022/07/11 02:01:52;;;;;;;2.70;2.60;;;;;;;18.53;92.52;99201.59;5126251;27;20190;-65
2022/07/11 02:04:20;;;;;;;2.33;2.23;;;;;;;18.51;92.80;99199.13;5123462;27;20195;-66
2022/07/11 02:06:47;;;;;;;2.20;2.10;;;;;;;18.45;92.69;99201.25;5111541;27;20202;-66
2022/07/11 02:09:14;;;;;;;3.53;2.10;;;;;;;18.49;92.92;99215.66;5118811;27;20275;-66
2022/07/11 02:11:40;;;;;;;2.67;2.57;;;;;;;18.46;93.39;99215.88;5131345;27;20198;-66
2022/07/11 02:14:07;;;;;;;2.10;1.93;;;;;;;18.43;94.00;99206.53;5131470;27;20208;-66
2022/07/11 02:16:36;;;;;;;2.47;2.27;;;;;;;18.38;94.75;99212.94;5125906;27;20762;-66
2022/07/11 02:19:02;;;;;;;2.67;2.57;;;;;;;18.32;94.58;99214.16;5111384;28;20201;-65
2022/07/11 02:21:29;;;;;;;2.27;2.13;;;;;;;18.23;95.78;99220.78;5110936;28;20202;-66
2022/07/11 02:23:56;;;;;;;2.40;2.30;;;;;;;18.22;95.49;99228.69;5120516;27;20582;-65
2022/07/11 02:26:23;;;;;;;2.50;2.40;;;;;;;18.16;95.70;99221.25;5117160;27;20208;-66
2022/07/11 02:28:50;;;;;;;3.43;3.23;;;;;;;18.06;95.07;99228.81;5114517;27;20194;-66
2022/07/11 02:31:16;;;;;;;2.93;2.80;;;;;;;18.01;95.47;99230.88;5113965;28;20202;-66
2022/07/11 02:33:45;;;;;;;2.93;2.73;;;;;;;17.95;95.11;99235.59;5131580;28;20194;-65
2022/07/11 02:36:11;;;;;;;2.57;2.47;;;;;;;17.97;94.01;99234.56;5131744;28;20217;-65
2022/07/11 02:38:38;;;;;;;2.80;2.60;;;;;;;18.00;94.35;99238.72;5128178;27;20194;-66
2022/07/11 02:41:05;;;;;;;2.67;2.57;;;;;;;18.03;93.45;99233.38;5120201;28;20555;-65
2022/07/11 02:43:32;;;;;;;2.50;2.40;;;;;;;18.06;93.08;99243.56;5129983;28;20186;-65
2022/07/11 02:45:59;;;;;;;2.60;2.40;;;;;;;18.05;92.79;99245.31;5111850;28;20203;-65
2022/07/11 02:48:26;;;;;;;2.27;2.17;;;;;;;18.09;91.95;99248.56;5117033;28;20217;-65
2022/07/11 02:50:54;;;;;;;2.10;2.03;;;;;;;18.02;91.34;99236.91;5111124;28;20226;-66
2022/07/11 02:53:21;;;;;;;2.50;2.40;;;;;;;18.15;91.20;99259.38;5111490;28;20195;-66
2022/07/11 02:55:48;;;;;;;1.93;1.83;;;;;;;18.24;90.31;99260.53;5109189;28;20199;-66
2022/07/11 02:58:15;;;;;;;1.93;1.83;;;;;;;18.29;89.71;99261.06;5125553;28;20234;-66
2022/07/11 03:00:42;;;;;;;2.83;2.63;;;;;;;18.33;89.29;99265.97;5129931;28;20194;-66
2022/07/11 03:03:09;;;;;;;2.40;2.30;;;;;;;18.35;88.93;99268.50;5130455;28;20195;-65
2022/07/11 03:05:36;;;;;;;2.20;2.10;;;;;;;18.36;89.30;99270.97;5113999;27;20199;-66
2022/07/11 03:08:05;;;;;;;2.30;2.20;;;;;;;18.31;89.66;99270.44;5115929;28;20213;-65
2022/07/11 03:10:31;;;;;;;2.40;2.30;;;;;;;18.28;90.39;99269.81;5113290;28;20218;-66
2022/07/11 03:12:58;;;;;;;2.07;2.00;;;;;;;18.22;90.22;99265.00;5110643;28;20687;-65
2022/07/11 03:15:25;;;;;;;2.47;2.37;;;;;;;18.19;90.26;99270.41;5111736;28;20194;-65
2022/07/11 03:17:52;;;;;;;2.80;2.70;;;;;;;18.16;90.41;99278.34;5114087;28;20209;-65
2022/07/11 03:20:19;;;;;;;4.53;2.57;;;;;;;18.09;90.32;99258.94;5109172;28;20578;-65
2022/07/11 03:22:46;;;;;;;3.10;2.83;;;;;;;18.17;89.78;99277.44;5120714;27;20574;-65
2022/07/11 03:25:14;;;;;;;2.50;2.40;;;;;;;18.19;89.72;99278.19;5120361;27;20255;-66
2022/07/11 03:27:41;;;;;;;2.97;2.77;;;;;;;18.09;89.59;99261.53;5124153;27;20205;-66
2022/07/11 03:30:08;;;;;;;5.17;2.87;;;;;;;18.23;89.84;99277.03;5134497;27;20226;-65
2022/07/11 03:32:35;;;;;;;2.90;2.80;;;;;;;18.19;89.46;99265.22;5134769;27;20197;-67
2022/07/11 03:37:46;;;;;;;2.40;2.30;;;;;;;18.33;88.96;99284.16;5128287;27;20690;-66
2022/07/11 03:40:15;;;;;;;2.20;2.10;;;;;;;18.38;88.69;99289.06;5134255;27;20190;-65
2022/07/11 03:42:41;;;;;;;2.47;2.27;;;;;;;18.46;88.42;99297.16;5134505;27;20194;-66
2022/07/11 03:45:09;;;;;;;2.07;1.97;;;;;;;18.56;nan;99290.50;5134146;27;20626;-65
2022/07/11 03:47:36;;;;;;;1.60;1.60;;;;;;;18.65;87.63;99302.03;5134527;27;20220;-65
2022/07/11 03:50:03;;;;;;;2.87;2.67;;;;;;;18.68;86.90;99302.69;5114901;27;20697;-66
2022/07/11 03:52:31;;;;;;;1.87;1.87;;;;;;;18.85;86.24;99307.63;5117955;27;20213;-65
2022/07/11 03:54:58;;;;;;;2.00;1.90;;;;;;;18.98;84.80;99309.41;5123221;27;20211;-66
2022/07/11 03:57:26;;;;;;;1.87;1.77;;;;;;;19.08;84.73;99307.88;5134050;27;20638;-65
2022/07/11 03:59:53;;;;;;;1.60;1.60;;;;;;;19.19;84.39;99306.22;5121446;27;20273;-65
2022/07/11 04:02:20;;;;;;;1.63;1.57;;;;;;;19.22;85.05;99303.44;5117766;27;20208;-65
2022/07/11 04:04:47;;;;;;;1.60;1.60;;;;;;;19.19;85.34;99289.81;5116687;27;20192;-66
2022/07/11 04:07:14;;;;;;;2.00;1.90;;;;;;;19.36;85.18;99307.69;5133882;27;20292;-65
2022/07/11 04:09:41;;;;;;;3.23;1.83;;;;;;;19.44;84.24;99300.25;5123506;27;20586;-66
2022/07/11 04:12:08;;;;;;;2.30;2.20;;;;;;;19.47;84.09;99305.22;5126302;27;20208;-66
2022/07/11 04:14:36;;;;;;;1.50;1.50;;;;;;;19.59;83.54;99299.19;5126533;27;20203;-66
2022/07/11 04:17:03;;;;;;;2.30;1.60;;;;;;;19.71;82.37;99307.94;5121885;27;20199;-66
2022/07/11 04:19:30;;;;;;;1.97;1.87;;;;;;;19.76;82.26;99313.63;5133794;27;20190;-66
2022/07/11 04:21:58;;;;;;;1.70;1.60;;;;;;;19.82;82.35;99310.59;5123114;27;20198;-66
2022/07/11 04:24:25;;;;;;;1.60;1.60;;;;;;;19.93;83.41;99314.13;5120794;27;20223;-65
2022/07/11 04:26:52;;;;;;;2.37;2.27;;;;;;;20.06;82.82;99313.28;5130567;27;20198;-66
2022/07/11 04:29:19;;;;;;;1.77;1.77;;;;;;;20.13;82.70;99323.13;5129043;27;20195;-66
2022/07/11 04:31:47;;;;;;;1.97;1.73;;;;;;;20.23;83.02;99325.91;5132815;27;20241;-66
2022/07/11 04:34:14;;;;;;;1.60;1.60;;;;;;;20.38;81.69;99325.72;5132127;27;20195;-65
2022/07/11 04:36:41;;;;;;;2.17;1.40;;;;;;;20.48;81.36;99336.31;5133328;27;20683;-65
2022/07/11 04:39:08;;;;;;;1.43;1.43;;;;;;;20.63;80.40;99335.19;5133198;27;20201;-66
2022/07/11 04:41:35;;;;;;;1.40;1.40;;;;;;;20.77;79.26;99337.63;5129696;27;20551;-66
2022/07/11 04:44:02;;;;;;;3.83;1.43;;;;;;;21.10;76.38;99339.53;5119346;27;20204;-66
2022/07/11 04:46:29;;;;;;;2.00;1.80;;;;;;;21.25;75.00;99346.25;5119053;27;20209;-65
2022/07/11 04:48:57;;;;;;;2.90;1.53;;;;;;;21.44;76.75;99343.09;5112559;28;20204;-65
2022/07/11 04:51:24;;;;;;;1.83;1.80;;;;;;;21.61;75.39;99340.03;5118728;27;20214;-66
2022/07/11 04:53:51;;;;;;;1.43;1.43;;;;;;;21.81;74.51;99339.31;5119313;27;20195;-65
2022/07/11 04:56:18;;;;;;;2.37;1.40;;;;;;;21.95;75.46;99333.91;5112482;28;20206;-65
2022/07/11 04:58:45;;;;;;;2.57;1.60;;;;;;;22.05;72.52;99335.78;5115518;27;20198;-65
2022/07/11 05:01:12;;;;;;;1.50;1.50;;;;;;;22.15;72.36;99340.19;5119803;27;20671;-65
2022/07/11 05:03:39;;;;;;;3.00;1.73;;;;;;;22.19;72.65;99330.31;5112253;28;20677;-65
2022/07/11 05:06:07;;;;;;;1.40;1.40;;;;;;;22.14;71.42;99338.50;5118415;27;20594;-66
2022/07/11 05:08:36;;;;;;;1.87;1.30;;;;;;;22.16;72.34;99346.22;5129250;27;20681;-65
2022/07/11 05:11:03;;;;;;;1.40;1.30;;;;;;;22.29;71.80;99337.31;5132196;27;20693;-65
2022/07/11 05:13:30;;;;;;;1.57;1.47;;;;;;;22.46;71.88;99341.19;5132662;27;20715;-65
2022/07/11 05:15:57;;;;;;;1.30;1.20;;;;;;;22.53;71.53;99339.75;5132348;27;20202;-66
2022/07/11 05:18:23;;;;;;;1.27;1.23;;;;;;;22.68;72.08;99343.75;5122578;27;20199;-65
2022/07/11 05:20:50;;;;;;;1.40;1.40;;;;;;;22.87;70.56;99349.19;5125958;27;20206;-65
2022/07/11 05:23:19;;;;;;;1.20;1.20;;;;;;;22.90;70.44;99343.69;5118057;27;20289;-66
2022/07/11 05:25:45;;;;;;;1.43;1.43;;;;;;;23.07;70.21;99351.94;5111741;28;20195;-66
2022/07/11 05:28:12;;;;;;;1.00;1.00;;;;;;;23.10;69.06;99343.84;5112453;27;20273;-65
2022/07/11 05:30:39;;;;;;;1.60;1.50;;;;;;;23.20;68.13;99349.97;5123003;27;20237;-66
2022/07/11 05:33:06;;;;;;;1.77;1.50;;;;;;;23.22;68.05;99348.06;5125837;27;20736;-65
2022/07/11 05:35:33;;;;;;;4.33;1.27;;;;;;;23.39;70.03;99350.13;5130741;27;20205;-65
2022/07/11 05:38:00;;;;;;;1.23;1.23;;;;;;;23.38;68.50;99343.22;5128350;27;20214;-65
2022/07/11 05:40:28;;;;;;;1.60;1.00;;;;;;;23.63;67.93;99348.06;5116658;27;20206;-64
2022/07/11 05:42:55;;;;;;;1.23;1.23;;;;;;;23.84;68.34;99350.66;5120796;27;20202;-64
2022/07/11 05:45:22;;;;;;;1.20;1.20;;;;;;;23.90;64.68;99356.19;5121762;27;20201;-67
2022/07/11 05:47:48;;;;;;;1.73;0.97;;;;;;;24.06;65.19;99355.72;5123033;27;20682;-66
2022/07/11 05:50:15;;;;;;;0.83;0.83;;;;;;;24.09;62.28;99365.09;5125074;27;20237;-66
2022/07/11 05:52:42;;;;;;;0.90;0.90;;;;;;;24.19;62.11;99363.38;5127271;27;20197;-66
2022/07/11 05:55:09;;;;;;;0.80;0.80;;;;;;;24.33;65.76;99363.00;5126138;27;20217;-65
2022/07/11 05:57:37;;;;;;;1.00;1.00;;;;;;;24.41;63.86;99371.00;5118624;27;20650;-66
2022/07/11 06:00:05;;;;;;;0.90;0.90;;;;;;;24.48;63.46;99372.13;5126352;27;20198;-66
2022/07/11 06:02:31;;;;;;;1.57;1.07;;;;;;;24.51;62.21;99377.09;5124647;27;20205;-66
2022/07/11 06:04:58;;;;;;;0.83;0.83;;;;;;;24.70;64.11;99382.38;5121674;27;20293;-66
2022/07/11 06:10:24;;;;;;;1.43;0.90;;;;;;;25.02;63.04;99388.25;5053199;28;20932;-65
2022/07/11 06:12:52;;;;;;;2.93;1.00;;;;;;;24.93;59.66;99385.63;5052185;28;20679;-66
2022/07/11 06:15:19;;;;;;;1.53;1.10;;;;;;;25.03;60.04;99387.28;5084339;27;20205;-65
2022/07/11 06:17:46;;;;;;;7.50;1.10;;;;;;;25.05;58.62;99377.47;5122813;27;20226;-65
2022/07/11 06:20:13;;;;;;;0.80;0.80;;;;;;;25.27;57.74;99389.47;5120936;27;20662;-66
2022/07/11 06:22:40;;;;;;;1.53;0.70;;;;;;;25.43;56.03;99396.75;5122786;28;20682;-63
2022/07/11 06:25:08;;;;;;;0.80;0.80;;;;;;;25.42;55.38;99395.13;5121419;28;20197;-64
2022/07/11 06:27:35;;;;;;;5.63;0.93;;;;;;;25.39;54.90;99398.03;5127515;28;20302;-64
2022/07/11 06:30:04;;;;;;;1.33;0.83;;;;;;;25.44;54.67;99399.25;5122697;28;20197;-65
2022/07/11 06:32:31;;;;;;;1.17;1.08;;;;;;;25.45;53.73;99392.22;5128302;28;20440;-61
2022/07/11 06:34:58;;;;;;;4.27;0.80;;;;;;;25.54;56.13;99407.16;5129505;27;20258;-61
2022/07/11 06:37:25;;;;;;;1.17;0.90;;;;;;;25.73;55.86;99403.66;5130655;28;20198;-60
2022/07/11 06:39:51;;;;;;;0.83;0.83;;;;;;;25.87;54.02;99385.66;5130126;27;20246;-60
2022/07/11 06:42:18;;;;;;;0.97;0.80;;;;;;;25.98;53.26;99393.34;5129522;28;20194;-60
2022/07/11 06:44:45;;;;;;;2.00;0.80;;;;;;;26.17;54.83;99395.13;5128525;28;20230;-60
2022/07/11 06:47:13;;;;;;;0.82;0.80;;;;;;;26.22;54.58;99399.94;5122640;28;20456;-63
2022/07/11 06:49:40;;;;;;;0.90;0.90;;;;;;;26.27;52.54;99392.44;5117110;28;20670;-62
2022/07/11 06:52:07;;;;;;;0.90;0.90;;;;;;;26.52;53.26;99392.59;5121773;28;20666;-62
2022/07/11 06:54:34;;;;;;;10.03;1.17;;;;;;;26.74;49.32;99401.84;5123089;28;20627;-69
2022/07/11 06:57:00;;;;;;;2.53;0.80;;;;;;;26.70;49.50;99395.22;5120640;27;20213;-62
2022/07/11 06:59:27;;;;;;;1.47;1.37;;;;;;;26.76;48.42;99397.25;5134879;27;20194;-62
2022/07/11 07:01:54;;;;;;;10.50;1.37;;;;;;;26.69;49.26;99388.31;5118011;27;20207;-62
2022/07/11 07:04:22;;;;;;;0.80;0.80;;;;;;;26.62;48.32;99384.66;5120999;27;20203;-62
2022/07/11 07:06:49;;;;;;;0.70;0.70;;;;;;;26.55;48.18;99388.84;5133457;27;20634;-62
2022/07/11 07:09:16;;;;;;;0.73;0.73;;;;;;;26.78;51.01;99397.97;5134400;27;20204;-62
2022/07/11 07:11:43;;;;;;;0.93;0.80;;;;;;;27.07;49.07;99403.88;5133724;27;20213;-62
2022/07/11 07:14:10;;;;;;;0.80;0.80;;;;;;;27.30;49.87;99393.69;5127505;27;20206;-62
2022/07/11 07:16:37;;;;;;;1.13;0.70;;;;;;;27.54;47.59;99407.06;5123772;27;20209;-62
2022/07/11 07:19:04;;;;;;;0.70;0.70;;;;;;;27.58;46.46;99408.44;5127338;27;20213;-62
2022/07/11 07:21:33;;;;;;;2.10;0.70;;;;;;;27.67;45.71;99411.09;5127211;27;20650;-62
2022/07/11 07:24:01;;;;;;;0.63;0.63;;;;;;;27.75;47.40;99403.25;5124489;27;20717;-63
2022/07/11 07:26:27;;;;;;;6.37;1.30;;;;;;;27.82;45.06;99399.84;5128553;27;20271;-62
2022/07/11 07:28:54;;;;;;;0.60;0.60;;;;;;;27.81;46.30;99407.91;5124192;27;20202;-62
2022/07/11 07:31:21;;;;;;;0.73;0.60;;;;;;;27.89;45.94;99411.41;5127301;27;20248;-62
2022/07/11 07:33:48;;;;;;;0.70;0.70;;;;;;;28.11;47.67;99405.63;5125580;27;20206;-63
2022/07/11 07:36:15;;;;;;;0.67;0.67;;;;;;;28.10;42.72;99411.06;5121602;27;20304;-61
2022/07/11 07:38:46;;;;;;;0.70;0.70;;;;;;;28.28;43.86;99400.44;5131122;27;20202;-62
2022/07/11 07:41:13;;;;;;;0.70;0.70;;;;;;;28.08;43.96;99398.03;5127628;27;20206;-63
2022/07/11 07:43:41;;;;;;;0.60;0.60;;;;;;;28.15;44.65;99406.97;5131014;27;20205;-63
2022/07/11 07:46:08;;;;;;;0.60;0.60;;;;;;;28.41;41.83;99401.63;5133743;27;20300;-61
2022/07/11 07:48:36;;;;;;;0.70;0.70;;;;;;;28.58;44.07;99408.63;5134099;27;20681;-65
2022/07/11 07:51:02;;;;;;;0.50;0.50;;;;;;;28.71;42.21;99402.91;5133898;27;20676;-63
2022/07/11 07:53:29;;;;;;;0.80;0.60;;;;;;;28.75;42.51;99409.53;5134061;27;20194;-62
2022/07/11 07:55:57;;;;;;;0.77;0.77;;;;;;;28.85;42.02;99404.94;5121297;27;20198;-62
2022/07/11 07:58:24;;;;;;;1.67;0.70;;;;;;;28.95;40.50;99410.06;5122555;27;20193;-63
2022/07/11 08:03:35;;;;;;;0.73;0.73;;;;;;;29.09;43.15;99404.97;5129045;27;20208;-61
2022/07/11 08:06:02;;;;;;;0.63;0.63;;;;;;;29.00;42.54;99408.59;5125601;27;20301;-62
2022/07/11 08:08:29;;;;;;;0.70;0.70;;;;;;;28.99;39.71;99404.28;5130021;27;20205;-65
2022/07/11 08:11:00;;;;;;;2.72;0.98;;;;;;;29.01;39.65;99404.97;5128800;27;20217;-63
2022/07/11 08:13:27;;;;;;;0.65;0.65;;;;;;;28.68;41.17;99379.50;5123500;27;20203;-62
2022/07/11 08:15:54;;;;;;;0.67;0.67;;;;;;;28.67;39.50;99401.59;5118107;27;20230;-60
2022/07/11 08:18:21;;;;;;;0.60;0.60;;;;;;;28.73;40.00;99395.66;5117158;27;20202;-62
2022/07/11 08:20:48;;;;;;;0.60;0.60;;;;;;;28.77;38.69;99402.28;5125772;27;20210;-63
2022/07/11 08:23:15;;;;;;;0.70;0.70;;;;;;;28.95;39.17;99405.59;5130786;27;20194;-62
2022/07/11 08:25:42;;;;;;;0.63;0.63;;;;;;;28.98;40.70;99399.97;5128711;27;20214;-60
2022/07/11 08:28:10;;;;;;;0.90;0.87;;;;;;;29.07;42.57;99399.03;5128489;27;20198;-62
2022/07/11 08:30:37;;;;;;;0.65;0.65;;;;;;;29.16;40.24;99397.22;5125703;27;20674;-62
2022/07/11 08:33:04;;;;;;;0.60;0.60;;;;;;;29.25;42.21;99395.41;5126264;27;20203;-62
2022/07/11 08:35:31;;;;;;;1.00;1.00;;;;;;;29.46;38.62;99398.41;5125848;27;20693;-62
2022/07/11 08:37:57;;;;;;;0.80;0.73;;;;;;;29.32;39.96;99406.97;5129721;27;20214;-63
2022/07/11 08:40:25;;;;;;;0.60;0.60;;;;;;;29.39;40.92;99392.13;5128834;27;20564;-62
2022/07/11 08:42:52;;;;;;;0.70;0.70;;;;;;;29.45;40.53;99391.44;5126812;27;20209;-63
2022/07/11 08:45:23;;;;;;;0.70;0.70;;;;;;;29.65;40.08;99396.22;5122411;27;20675;-62
2022/07/11 08:47:54;;;;;;;5.00;1.10;;;;;;;29.77;40.45;99399.31;5124975;27;20226;-62
2022/07/11 08:50:22;;;;;;;0.77;0.70;;;;;;;29.99;40.30;99379.31;5127140;27;20210;-63
2022/07/11 08:52:49;;;;;;;2.78;0.90;;;;;;;29.90;38.53;99370.59;5131150;27;20258;-62
2022/07/11 08:55:16;;;;;;;1.30;1.30;;;;;;;29.82;41.62;99390.91;5121836;27;20195;-63
2022/07/11 08:57:43;;;;;;;16.40;2.05;;;;;;;29.68;40.94;99390.59;5127845;27;20689;-62
2022/07/11 09:00:10;;;;;;;0.70;0.70;;;;;;;29.70;42.83;99388.59;5128022;27;20731;-63
2022/07/11 09:02:42;;;;;;;0.63;0.63;;;;;;;29.99;40.86;99380.13;5125774;27;20201;-62
2022/07/11 09:05:10;;;;;;;0.93;0.93;;;;;;;30.07;41.11;99384.59;5122683;27;20651;-63
2022/07/11 09:07:44;;;;;;;0.70;0.70;;;;;;;30.01;38.01;99393.19;5122962;27;20199;-63
2022/07/11 09:10:11;;;;;;;1.95;0.75;;;;;;;29.79;37.71;99384.13;5119333;27;20214;-62
2022/07/11 09:12:37;;;;;;;0.60;0.60;;;;;;;29.73;39.43;99382.16;5125076;27;20213;-62
2022/07/11 09:15:05;;;;;;;0.57;0.57;;;;;;;29.80;39.55;99369.09;5130100;27;20209;-62
2022/07/11 09:17:32;;;;;;;0.63;0.63;;;;;;;29.79;40.00;99378.84;5124607;27;20201;-62
2022/07/11 09:20:00;;;;;;;0.80;0.80;;;;;;;29.82;37.16;99377.69;5121913;27;20221;-62
2022/07/11 09:25:23;;;;;;;1.05;1.00;;;;;;;29.68;35.74;99381.84;5123897;27;20700;-61
2022/07/11 09:27:52;;;;;;;0.60;0.60;;;;;;;29.88;35.16;99377.88;5124714;27;20267;-61
2022/07/11 09:30:22;;;;;;;1.13;0.80;;;;;;;30.07;33.88;99376.66;5128732;27;20190;-62
2022/07/11 09:32:58;;;;;;;0.50;0.50;;;;;;;29.96;33.85;99385.75;5131615;27;20232;-61
2022/07/11 09:35:27;;;;;;;0.77;0.60;;;;;;;29.83;32.89;99382.00;5118380;27;20194;-62
2022/07/11 09:37:54;;;;;;;1.02;0.65;;;;;;;29.65;34.10;99385.66;5132138;27;20197;-63
2022/07/11 09:40:22;;;;;;;1.25;0.50;;;;;;;29.77;33.32;99387.94;5126008;27;20246;-61
2022/07/11 09:42:51;;;;;;;0.60;0.60;;;;;;;29.85;30.08;99382.66;5129861;27;20194;-62
2022/07/11 09:45:18;;;;;;;0.70;0.70;;;;;;;29.72;30.36;99383.16;5128482;27;20198;-61
2022/07/11 09:47:46;;;;;;;2.50;1.40;;;;;;;29.77;32.98;99375.53;5130753;27;20226;-61
2022/07/11 09:50:14;;;;;;;0.45;0.45;;;;;;;30.00;30.68;99389.72;5130785;27;20680;-63
2022/07/11 09:52:58;;;;;;;0.60;0.60;;;;;;;29.90;30.16;99394.38;5122970;27;20233;-62
2022/07/11 09:55:26;;;;;;;0.50;0.50;;;;;;;29.70;31.85;99385.13;5123668;27;20214;-63
2022/07/11 09:57:54;;;;;;;0.57;0.57;;;;;;;29.82;28.13;99401.47;5130114;27;20659;-62
2022/07/11 10:00:21;;;;;;;1.00;0.40;;;;;;;29.74;27.57;99375.88;5121770;27;20284;-63
2022/07/11 10:02:49;;;;;;;0.40;0.40;;;;;;;29.80;26.95;99396.34;5124446;27;20206;-62
2022/07/11 10:05:16;;;;;;;0.50;0.50;;;;;;;29.74;27.07;99404.94;5125116;27;20285;-63
2022/07/11 10:07:45;;;;;;;0.60;0.60;;;;;;;29.55;26.72;99397.38;5122404;27;20237;-63
2022/07/11 10:10:12;;;;;;;2.45;0.50;;;;;;;29.37;27.64;99383.56;5118600;27;20215;-63
2022/07/11 10:12:39;;;;;;;0.60;0.60;;;;;;;29.41;31.25;99390.97;5115984;28;20224;-62
2022/07/11 10:15:10;;;;;;;0.40;0.40;;;;;;;29.52;30.22;99387.16;5113668;28;20713;-63
2022/07/11 10:17:44;;;;;;;0.60;0.60;;;;;;;29.53;30.43;99383.53;5118900;27;20199;-63
2022/07/11 10:20:17;;;;;;;0.60;0.60;;;;;;;29.67;32.09;99372.25;5124995;27;21215;-63
2022/07/11 10:22:54;;;;;;;4.15;0.57;;;;;;;29.74;30.75;99378.53;5126890;27;20201;-63
2022/07/11 10:25:30;;;;;;;0.65;0.65;;;;;;;29.70;30.01;99385.13;5119805;28;20217;-66
2022/07/11 10:28:09;;;;;;;2.97;0.75;;;;;;;29.59;30.15;99381.03;5127747;27;20209;-62
2022/07/11 10:30:46;;;;;;;3.30;1.20;;;;;;;29.69;33.14;99379.03;5120004;27;20277;-63
2022/07/11 10:33:13;;;;;;;1.45;0.85;;;;;;;29.68;35.35;99376.56;5127142;27;20267;-62
2022/07/11 10:35:45;;;;;;;0.70;0.70;;;;;;;29.64;31.68;99375.25;5133696;27;20201;-64
2022/07/11 10:38:14;;;;;;;0.63;0.63;;;;;;;29.65;30.97;99377.72;5132386;27;20201;-63
2022/07/11 10:40:49;;;;;;;0.70;0.70;;;;;;;29.74;34.09;99367.13;5129868;27;20455;-63
2022/07/11 10:43:32;;;;;;;3.50;0.73;;;;;;;29.79;31.08;99368.25;5134154;27;20204;-65
2022/07/11 10:46:01;;;;;;;0.60;0.60;;;;;;;29.87;31.09;99370.09;5134274;27;20205;-63
2022/07/11 10:48:29;;;;;;;0.60;0.60;;;;;;;29.96;31.84;99369.91;5134154;27;20720;-63
2022/07/11 10:51:17;;;;;;;0.80;0.80;;;;;;;29.93;32.36;99364.13;5129673;27;20663;-63
2022/07/11 10:53:48;;;;;;;0.63;0.63;;;;;;;30.04;34.15;99366.41;5126810;27;20226;-63
2022/07/11 10:56:51;;;;;;;1.45;0.60;;;;;;;30.13;31.99;99362.75;5133741;27;20217;-63
2022/07/11 10:59:19;;;;;;;0.75;0.75;;;;;;;30.17;31.47;99361.41;5133551;27;20205;-69
2022/07/11 11:02:14;;;;;;;0.73;0.73;;;;;;;30.13;32.73;99371.50;5132602;27;20282;-63
2022/07/11 11:04:57;;;;;;;0.80;0.80;;;;;;;30.14;32.98;99367.88;5124206;27;20225;-63
2022/07/11 11:07:36;;;;;;;0.77;0.77;;;;;;;30.11;33.09;99370.81;5125876;27;20201;-63
2022/07/11 11:10:06;;;;;;;1.45;0.80;;;;;;;30.13;32.36;99360.94;5127115;27;20200;-63
2022/07/11 11:13:14;;;;;;;1.55;0.70;;;;;;;30.12;31.37;99364.56;5124303;27;20597;-64
2022/07/11 11:15:43;;;;;;;0.80;0.60;;;;;;;30.08;30.57;99351.88;5103216;27;20202;-63
2022/07/11 11:18:43;;;;;;;0.90;0.82;;;;;;;30.10;33.66;99371.84;5129005;27;20202;-63
2022/07/11 11:21:25;;;;;;;0.60;0.60;;;;;;;30.13;31.84;99362.75;5065194;28;20206;-64
2022/07/11 11:24:06;;;;;;;2.20;0.60;;;;;;;30.12;31.85;99364.56;5120221;27;20194;-63
2022/07/11 11:26:52;;;;;;;1.58;0.55;;;;;;;29.99;31.16;99368.72;5123809;27;20657;-64
2022/07/11 11:29:22;;;;;;;0.70;0.70;;;;;;;29.86;30.17;99371.91;5125520;27;20190;-63
2022/07/11 11:31:55;;;;;;;0.85;0.70;;;;;;;29.68;30.72;99371.28;5125452;27;20205;-68
2022/07/11 11:34:23;;;;;;;0.70;0.70;;;;;;;29.68;32.93;99373.91;5130803;27;20194;-62
2022/07/11 11:36:58;;;;;;;1.73;0.60;;;;;;;29.68;33.01;99382.69;5130984;27;20278;-63
2022/07/11 11:39:27;;;;;;;0.50;0.50;;;;;;;29.72;32.15;99372.59;5131886;27;20197;-64
2022/07/11 11:42:04;;;;;;;4.20;0.60;;;;;;;29.69;33.30;99372.94;5131256;27;20690;-63
2022/07/11 11:44:31;;;;;;;0.68;0.65;;;;;;;29.70;32.56;99369.28;5123211;27;20206;-63
2022/07/11 11:46:58;;;;;;;0.77;0.60;;;;;;;29.68;29.79;99376.56;5119773;27;20234;-62
2022/07/11 11:49:25;;;;;;;0.55;0.55;;;;;;;29.66;31.46;99375.91;5122977;27;20208;-62
2022/07/11 11:51:56;;;;;;;4.78;0.55;;;;;;;29.74;32.03;99364.47;5123539;27;20203;-64